createdAt,value
2022-07-25T00:01:51.888Z,21.80
2022-07-25T00:04:40.534Z,21.80
2022-07-25T00:07:30.888Z,21.80
2022-07-25T00:10:19.194Z,21.70
2022-07-25T00:13:07.374Z,21.70
2022-07-25T00:15:56.959Z,21.70
2022-07-25T00:18:45.369Z,21.60
2022-07-25T00:21:33.571Z,21.60
2022-07-25T00:24:21.758Z,21.60
2022-07-25T00:27:09.960Z,21.50
2022-07-25T00:29:58.125Z,21.50
2022-07-25T00:32:47.680Z,21.50
2022-07-25T00:35:35.968Z,21.40
2022-07-25T00:38:24.169Z,21.40
2022-07-25T00:41:12.400Z,21.40
2022-07-25T00:44:00.614Z,21.30
2022-07-25T00:46:48.848Z,21.30
2022-07-25T00:49:38.409Z,21.30
2022-07-25T00:52:26.810Z,21.30
2022-07-25T00:55:16.686Z,21.20
2022-07-25T00:58:04.879Z,21.20
2022-07-25T01:00:53.100Z,21.20
2022-07-25T01:03:41.383Z,21.10
2022-07-25T01:06:31.312Z,21.10
2022-07-25T01:09:19.935Z,21.00
2022-07-25T01:12:08.515Z,21.00
2022-07-25T01:14:59.139Z,21.00
2022-07-25T01:17:47.430Z,21.00
2022-07-25T01:20:37.005Z,20.90
2022-07-25T01:23:25.185Z,20.90
2022-07-25T01:26:13.370Z,20.90
2022-07-25T01:29:01.578Z,20.90
2022-07-25T01:31:49.751Z,20.80
2022-07-25T01:34:37.929Z,20.80
2022-07-25T01:37:27.471Z,20.80
2022-07-25T01:40:16.233Z,20.70
2022-07-25T01:43:04.631Z,20.70
2022-07-25T01:45:52.937Z,20.60
2022-07-25T01:48:42.742Z,20.70
2022-07-25T01:51:30.954Z,20.60
2022-07-25T01:54:20.550Z,20.60
2022-07-25T01:57:10.369Z,20.60
2022-07-25T02:00:00.282Z,20.60
2022-07-25T02:02:48.569Z,20.50
2022-07-25T02:05:36.770Z,20.50
2022-07-25T02:08:24.934Z,20.50
2022-07-25T02:11:14.454Z,20.50
2022-07-25T02:14:02.821Z,20.50
2022-07-25T02:16:51.503Z,20.50
2022-07-25T02:19:39.737Z,20.50
2022-07-25T02:22:27.931Z,20.40
2022-07-25T02:25:16.104Z,20.40
2022-07-25T02:28:06.253Z,20.40
2022-07-25T02:30:54.579Z,20.40
2022-07-25T02:33:42.903Z,20.30
2022-07-25T02:36:31.151Z,20.30
2022-07-25T02:39:19.357Z,20.30
2022-07-25T02:42:07.804Z,20.30
2022-07-25T02:44:57.320Z,20.30
2022-07-25T02:47:45.684Z,20.20
2022-07-25T02:50:33.920Z,20.20
2022-07-25T02:53:40.265Z,20.20
2022-07-25T02:56:32.060Z,20.20
2022-07-25T02:59:20.381Z,20.10
2022-07-25T03:02:09.891Z,20.10
2022-07-25T03:04:58.257Z,20.10
2022-07-25T03:07:46.855Z,20.10
2022-07-25T03:10:36.385Z,20.10
2022-07-25T03:13:24.681Z,20.10
2022-07-25T03:16:12.990Z,20.00
2022-07-25T03:19:02.505Z,20.00
2022-07-25T03:21:50.730Z,19.90
2022-07-25T03:24:38.929Z,19.90
2022-07-25T03:27:27.276Z,19.90
2022-07-25T03:30:15.538Z,19.90
2022-07-25T03:33:03.813Z,19.80
2022-07-25T03:35:53.331Z,19.80
2022-07-25T03:38:41.957Z,19.80
2022-07-25T03:41:30.178Z,19.70
2022-07-25T03:44:18.611Z,19.70
2022-07-25T03:47:07.165Z,19.70
2022-07-25T03:49:55.366Z,19.70
2022-07-25T03:52:44.850Z,19.60
2022-07-25T03:55:33.003Z,19.60
2022-07-25T03:58:21.176Z,19.60
2022-07-25T04:01:09.372Z,19.60
2022-07-25T04:03:59.169Z,19.60
2022-07-25T04:06:47.762Z,19.60
2022-07-25T04:09:37.286Z,19.60
2022-07-25T04:12:25.466Z,19.60
2022-07-25T04:15:13.740Z,19.70
2022-07-25T04:18:01.893Z,19.70
2022-07-25T04:20:51.009Z,19.70
2022-07-25T04:23:39.323Z,19.70
2022-07-25T04:26:28.860Z,19.70
2022-07-25T04:29:17.095Z,19.80
2022-07-25T04:32:06.190Z,19.80
2022-07-25T04:34:55.421Z,19.80
2022-07-25T04:37:43.582Z,19.90
2022-07-25T04:40:31.866Z,19.90
2022-07-25T04:43:23.066Z,19.90
2022-07-25T04:46:11.414Z,19.90
2022-07-25T04:48:59.826Z,19.90
2022-07-25T04:51:48.038Z,19.90
2022-07-25T04:54:36.248Z,19.90
2022-07-25T04:57:24.412Z,20.00
2022-07-25T05:00:15.615Z,20.00
2022-07-25T05:03:04.839Z,20.10
2022-07-25T05:05:53.034Z,20.10
2022-07-25T05:08:41.233Z,20.10
2022-07-25T05:11:29.840Z,20.10
2022-07-25T05:14:18.447Z,20.20
2022-07-25T05:17:10.464Z,20.20
2022-07-25T05:19:58.971Z,20.30
2022-07-25T05:22:47.244Z,20.40
2022-07-25T05:25:35.423Z,20.40
2022-07-25T05:28:23.591Z,20.50
2022-07-25T05:31:11.986Z,20.60
2022-07-25T05:34:01.547Z,20.60
2022-07-25T05:36:49.695Z,20.70
2022-07-25T05:39:40.248Z,20.80
2022-07-25T05:42:28.663Z,20.80
2022-07-25T05:45:16.864Z,21.00
2022-07-25T05:48:05.342Z,21.00
2022-07-25T05:50:54.833Z,21.10
2022-07-25T05:53:43.099Z,21.10
2022-07-25T05:56:31.418Z,21.20
2022-07-25T05:59:19.638Z,21.30
2022-07-25T06:02:08.005Z,21.30
2022-07-25T06:04:56.388Z,21.40
2022-07-25T06:07:45.893Z,21.50
2022-07-25T06:10:34.126Z,21.60
2022-07-25T06:13:23.928Z,21.60
2022-07-25T06:16:12.321Z,21.70
2022-07-25T06:19:00.558Z,21.80
2022-07-25T06:21:48.703Z,21.80
2022-07-25T06:24:38.353Z,22.00
2022-07-25T06:27:29.424Z,22.10
2022-07-25T06:30:20.459Z,22.20
2022-07-25T06:33:09.198Z,22.20
2022-07-25T06:35:57.732Z,22.30
2022-07-25T06:38:45.951Z,22.40
2022-07-25T06:41:36.824Z,22.50
2022-07-25T06:44:25.018Z,22.60
2022-07-25T06:47:13.554Z,22.70
2022-07-25T06:50:01.764Z,22.80
2022-07-25T06:52:50.355Z,22.90
2022-07-25T06:55:38.834Z,23.00
2022-07-25T06:58:28.783Z,23.10
2022-07-25T07:01:17.113Z,23.30
2022-07-25T07:04:06.709Z,23.30
2022-07-25T07:06:55.159Z,23.50
2022-07-25T07:09:43.565Z,23.60
2022-07-25T07:12:31.776Z,23.70
2022-07-25T07:15:21.495Z,23.80
2022-07-25T07:18:09.645Z,23.90
2022-07-25T07:20:57.927Z,24.10
2022-07-25T07:23:46.117Z,24.20
2022-07-25T07:26:36.148Z,24.40
2022-07-25T07:29:24.307Z,24.40
2022-07-25T07:32:13.896Z,24.50
2022-07-25T07:35:02.083Z,24.70
2022-07-25T07:37:50.286Z,24.80
2022-07-25T07:40:38.704Z,24.90
2022-07-25T07:43:30.051Z,25.00
2022-07-25T07:46:18.696Z,25.20
2022-07-25T07:49:08.516Z,25.30
2022-07-25T07:51:56.999Z,25.40
2022-07-25T07:55:02.995Z,25.60
2022-07-25T07:57:51.287Z,25.80
2022-07-25T08:00:40.215Z,25.90
2022-07-25T08:03:28.857Z,26.10
2022-07-25T08:06:18.398Z,26.30
2022-07-25T08:09:06.905Z,26.50
2022-07-25T08:11:55.200Z,26.70
2022-07-25T08:14:43.479Z,27.00
2022-07-25T08:17:31.708Z,27.10
2022-07-25T08:20:37.339Z,27.20
2022-07-25T08:23:28.703Z,27.30
2022-07-25T08:26:16.886Z,27.40
2022-07-25T08:29:18.828Z,27.50
2022-07-25T08:32:07.921Z,27.70
2022-07-25T08:34:56.362Z,28.00
2022-07-25T08:37:44.844Z,28.20
2022-07-25T08:40:35.349Z,28.40
2022-07-25T08:43:24.448Z,28.60
2022-07-25T08:46:13.090Z,28.70
2022-07-25T08:49:01.396Z,28.80
2022-07-25T08:51:51.618Z,28.90
2022-07-25T08:54:40.304Z,29.10
2022-07-25T08:57:30.481Z,29.30
2022-07-25T09:00:19.611Z,29.40
2022-07-25T09:03:08.294Z,29.60
2022-07-25T09:05:56.565Z,29.70
2022-07-25T09:08:53.178Z,29.80
2022-07-25T09:11:41.413Z,30.00
2022-07-25T09:14:31.070Z,30.20
2022-07-25T09:17:22.162Z,30.20
2022-07-25T09:20:16.607Z,30.30
2022-07-25T09:23:07.214Z,30.40
2022-07-25T09:26:03.300Z,30.60
2022-07-25T09:28:53.373Z,30.80
2022-07-25T09:31:43.050Z,31.00
2022-07-25T09:34:34.695Z,31.20
2022-07-25T09:37:28.122Z,31.30
2022-07-25T09:40:16.725Z,31.50
2022-07-25T09:43:05.302Z,31.60
2022-07-25T09:45:53.856Z,31.70
2022-07-25T09:48:46.367Z,31.90
2022-07-25T09:51:35.238Z,32.00
2022-07-25T09:54:24.096Z,32.10
2022-07-25T09:57:12.386Z,32.10
2022-07-25T10:00:01.404Z,32.10
2022-07-25T10:02:53.478Z,32.30
2022-07-25T10:05:52.018Z,32.40
2022-07-25T10:08:42.249Z,32.40
2022-07-25T10:11:31.463Z,32.50
2022-07-25T10:14:20.315Z,32.70
2022-07-25T10:17:08.769Z,32.80
2022-07-25T10:19:58.881Z,32.60
2022-07-25T10:22:57.321Z,32.70
2022-07-25T10:25:49.182Z,32.60
2022-07-25T10:28:39.756Z,32.60
2022-07-25T10:31:36.548Z,32.80
2022-07-25T10:34:30.653Z,33.00
2022-07-25T10:37:21.106Z,33.30
2022-07-25T10:40:12.311Z,33.40
2022-07-25T10:43:08.642Z,33.60
2022-07-25T10:46:00.800Z,33.60
2022-07-25T10:49:00.261Z,33.60
2022-07-25T10:51:56.976Z,33.80
2022-07-25T10:54:55.758Z,33.90
2022-07-25T10:58:07.895Z,34.00
2022-07-25T11:00:54.366Z,34.20
2022-07-25T11:03:45.055Z,34.40
2022-07-25T11:06:35.364Z,34.60
2022-07-25T11:09:27.992Z,34.80
2022-07-25T11:12:16.901Z,34.70
2022-07-25T11:15:08.795Z,34.50
2022-07-25T11:17:56.997Z,34.60
2022-07-25T11:20:45.396Z,34.60
2022-07-25T11:23:33.699Z,34.90
2022-07-25T11:26:21.956Z,35.10
2022-07-25T11:29:10.367Z,35.20
2022-07-25T11:32:01.357Z,35.10
2022-07-25T11:34:51.406Z,35.00
2022-07-25T11:37:41.908Z,34.70
2022-07-25T11:40:30.429Z,34.50
2022-07-25T11:43:21.692Z,34.40
2022-07-25T11:46:10.196Z,34.30
2022-07-25T11:49:08.876Z,34.30
2022-07-25T11:51:57.427Z,34.20
2022-07-25T11:54:55.104Z,34.20
2022-07-25T11:57:46.943Z,34.40
2022-07-25T12:00:36.586Z,34.40
2022-07-25T12:03:24.844Z,34.40
2022-07-25T12:06:14.574Z,34.70
2022-07-25T12:09:15.014Z,34.70
2022-07-25T12:12:07.015Z,34.90
2022-07-25T12:14:55.192Z,34.90
2022-07-25T12:17:44.324Z,34.90
2022-07-25T12:20:34.568Z,34.90
2022-07-25T12:23:24.122Z,34.80
2022-07-25T12:26:14.469Z,34.90
2022-07-25T12:29:02.852Z,35.10
2022-07-25T12:31:51.213Z,35.40
2022-07-25T12:34:39.625Z,35.60
2022-07-25T12:37:31.078Z,35.70
2022-07-25T12:40:21.513Z,35.90
2022-07-25T12:43:10.100Z,36.20
2022-07-25T12:45:58.504Z,36.60
2022-07-25T12:48:46.906Z,36.90
2022-07-25T12:51:35.115Z,36.80
2022-07-25T12:54:23.305Z,36.70
2022-07-25T12:57:14.224Z,36.80
2022-07-25T13:00:02.472Z,36.80
2022-07-25T13:02:53.170Z,36.80
2022-07-25T13:05:41.958Z,36.40
2022-07-25T13:08:30.147Z,36.10
2022-07-25T13:11:18.349Z,35.90
2022-07-25T13:14:07.950Z,35.80
2022-07-25T13:16:57.301Z,35.80
2022-07-25T13:19:45.644Z,35.80
2022-07-25T13:22:34.252Z,35.80
2022-07-25T13:25:28.121Z,35.50
2022-07-25T13:28:19.481Z,35.50
2022-07-25T13:31:10.706Z,35.80
2022-07-25T13:33:59.689Z,36.00
2022-07-25T13:36:48.859Z,36.50
2022-07-25T13:39:38.416Z,36.90
2022-07-25T13:42:26.644Z,37.00
2022-07-25T13:45:14.938Z,36.90
2022-07-25T13:48:28.465Z,36.60
2022-07-25T13:51:14.570Z,36.80
2022-07-25T13:54:03.603Z,37.70
2022-07-25T13:56:51.825Z,38.30
2022-07-25T13:59:40.714Z,38.90
2022-07-25T14:02:29.452Z,39.00
2022-07-25T14:05:19.184Z,38.80
2022-07-25T14:08:08.100Z,38.50
2022-07-25T14:10:56.296Z,38.10
2022-07-25T14:13:45.258Z,37.60
2022-07-25T14:16:34.439Z,37.40
2022-07-25T14:19:24.123Z,37.90
2022-07-25T14:22:13.695Z,37.90
2022-07-25T14:25:02.026Z,37.60
2022-07-25T14:27:50.255Z,37.20
2022-07-25T14:30:38.444Z,37.00
2022-07-25T14:33:26.678Z,36.70
2022-07-25T14:36:14.877Z,36.50
2022-07-25T14:39:05.638Z,36.30
2022-07-25T14:41:54.085Z,36.10
2022-07-25T14:44:43.344Z,35.90
2022-07-25T14:47:31.545Z,35.60
2022-07-25T14:50:19.738Z,35.40
2022-07-25T14:53:07.915Z,35.20
2022-07-25T14:55:57.411Z,34.90
2022-07-25T14:58:45.611Z,34.70
2022-07-25T15:01:34.077Z,34.60
2022-07-25T15:04:38.861Z,34.40
2022-07-25T15:07:27.454Z,34.20
2022-07-25T15:10:15.646Z,34.00
2022-07-25T15:13:29.849Z,33.90
2022-07-25T15:16:14.861Z,33.70
2022-07-25T15:19:16.408Z,33.60
2022-07-25T15:22:05.534Z,33.40
2022-07-25T15:25:27.530Z,33.30
2022-07-25T15:28:06.734Z,33.00
2022-07-25T15:30:55.025Z,32.90
2022-07-25T15:33:43.193Z,32.70
2022-07-25T15:36:33.125Z,32.30
2022-07-25T15:39:23.155Z,32.00
2022-07-25T15:42:11.352Z,31.50
2022-07-25T15:45:31.273Z,31.00
2022-07-25T15:48:11.524Z,30.50
2022-07-25T15:51:01.419Z,29.90
2022-07-25T15:53:49.610Z,29.40
2022-07-25T15:56:38.853Z,29.10
2022-07-25T15:59:27.060Z,28.90
2022-07-25T16:02:16.623Z,28.60
2022-07-25T16:05:05.642Z,28.50
2022-07-25T16:07:56.143Z,28.10
2022-07-25T16:10:44.307Z,27.80
2022-07-25T16:13:32.606Z,27.70
2022-07-25T16:16:22.318Z,27.80
2022-07-25T16:19:15.007Z,28.30
2022-07-25T16:22:03.230Z,30.00
2022-07-25T16:24:51.871Z,31.00
2022-07-25T16:27:40.102Z,31.00
2022-07-25T16:30:28.709Z,31.00
2022-07-25T16:33:17.033Z,30.70
2022-07-25T16:36:07.589Z,30.30
2022-07-25T16:38:55.797Z,30.10
2022-07-25T16:41:45.385Z,29.90
2022-07-25T16:44:33.923Z,29.80
2022-07-25T16:47:22.143Z,29.70
2022-07-25T16:50:10.505Z,30.10
2022-07-25T16:53:00.134Z,30.60
2022-07-25T16:55:48.328Z,31.50
2022-07-25T16:58:36.527Z,32.60
2022-07-25T17:01:26.612Z,33.10
2022-07-25T17:04:14.915Z,33.20
2022-07-25T17:07:03.207Z,33.10
2022-07-25T17:09:53.208Z,33.50
2022-07-25T17:12:41.404Z,33.90
2022-07-25T17:15:29.628Z,34.00
2022-07-25T17:18:18.349Z,34.30
2022-07-25T17:21:07.241Z,34.60
2022-07-25T17:23:56.478Z,34.50
2022-07-25T17:26:46.060Z,34.40
2022-07-25T17:29:35.719Z,34.50
2022-07-25T17:32:27.837Z,34.70
2022-07-25T17:35:18.089Z,34.80
2022-07-25T17:38:06.592Z,34.60
2022-07-25T17:40:55.898Z,34.30
2022-07-25T17:43:45.422Z,34.20
2022-07-25T17:46:33.695Z,34.20
2022-07-25T17:49:22.041Z,33.90
2022-07-25T17:52:12.203Z,33.40
2022-07-25T17:55:00.422Z,33.20
2022-07-25T17:57:52.943Z,33.00
2022-07-25T18:00:42.569Z,33.00
2022-07-25T18:03:31.667Z,32.70
2022-07-25T18:06:19.935Z,32.40
2022-07-25T18:09:08.581Z,31.80
2022-07-25T18:12:00.063Z,31.30
2022-07-25T18:14:48.326Z,30.70
2022-07-25T18:17:37.838Z,30.40
2022-07-25T18:20:28.058Z,30.10
2022-07-25T18:23:16.213Z,29.90
2022-07-25T18:26:04.598Z,29.70
2022-07-25T18:28:52.923Z,29.40
2022-07-25T18:31:41.175Z,29.20
2022-07-25T18:34:31.209Z,29.00
2022-07-25T18:37:19.404Z,28.80
2022-07-25T18:40:09.592Z,28.50
2022-07-25T18:42:57.653Z,28.10
2022-07-25T18:45:46.757Z,27.90
2022-07-25T18:48:35.968Z,27.70
2022-07-25T18:51:25.655Z,27.50
2022-07-25T18:54:14.257Z,27.30
2022-07-25T18:57:03.832Z,27.10
2022-07-25T18:59:52.080Z,27.00
2022-07-25T19:02:40.283Z,26.90
2022-07-25T19:05:28.619Z,26.50
2022-07-25T19:08:18.255Z,26.30
2022-07-25T19:11:06.850Z,26.20
2022-07-25T19:13:55.075Z,26.00
2022-07-25T19:16:46.004Z,25.80
2022-07-25T19:19:34.660Z,25.70
2022-07-25T19:22:22.865Z,25.50
2022-07-25T19:25:13.606Z,25.50
2022-07-25T19:28:02.052Z,25.40
2022-07-25T19:30:50.367Z,25.30
2022-07-25T19:33:38.889Z,25.20
2022-07-25T19:36:27.055Z,25.10
2022-07-25T19:39:17.437Z,25.00
2022-07-25T19:42:09.736Z,24.90
2022-07-25T19:44:58.374Z,24.70
2022-07-25T19:47:46.595Z,24.40
2022-07-25T19:50:34.831Z,24.00
2022-07-25T19:53:28.097Z,23.70
2022-07-25T19:56:16.697Z,23.50
2022-07-25T19:59:06.402Z,23.40
2022-07-25T20:01:55.355Z,23.20
2022-07-25T20:04:44.063Z,23.10
2022-07-25T20:07:32.317Z,23.00
2022-07-25T20:10:20.620Z,23.00
2022-07-25T20:13:08.857Z,22.90
2022-07-25T20:15:59.035Z,22.80
2022-07-25T20:18:47.291Z,22.80
2022-07-25T20:21:37.007Z,22.80
2022-07-25T20:24:25.160Z,22.70
2022-07-25T20:27:13.383Z,22.70
2022-07-25T20:30:03.686Z,22.60
2022-07-25T20:32:53.675Z,22.60
2022-07-25T20:35:41.862Z,22.60
2022-07-25T20:38:31.141Z,22.50
2022-07-25T20:41:19.295Z,22.50
2022-07-25T20:44:07.640Z,22.60
2022-07-25T20:46:55.831Z,22.50
2022-07-25T20:49:46.423Z,22.50
2022-07-25T20:52:34.612Z,22.50
2022-07-25T20:55:23.170Z,22.30
2022-07-25T20:58:11.384Z,22.20
2022-07-25T21:00:59.813Z,22.00
2022-07-25T21:03:47.996Z,21.90
2022-07-25T21:06:37.612Z,21.80
2022-07-25T21:09:29.637Z,21.70
2022-07-25T21:12:21.080Z,21.70
2022-07-25T21:15:10.054Z,21.70
2022-07-25T21:17:59.592Z,21.70
2022-07-25T21:20:47.943Z,21.70
2022-07-25T21:23:38.890Z,21.60
2022-07-25T21:26:27.412Z,21.60
2022-07-25T21:29:15.603Z,21.60
2022-07-25T21:32:04.523Z,21.60
2022-07-25T21:34:52.780Z,21.60
2022-07-25T21:37:41.009Z,21.60
2022-07-25T21:40:30.541Z,21.50
2022-07-25T21:43:19.687Z,21.50
2022-07-25T21:46:08.107Z,21.50
2022-07-25T21:49:14.425Z,21.50
2022-07-25T21:52:03.379Z,21.50
2022-07-25T21:54:51.881Z,21.50
2022-07-25T21:57:41.407Z,21.50
2022-07-25T22:00:33.148Z,21.60
2022-07-25T22:03:22.549Z,21.60
2022-07-25T22:06:11.154Z,21.50
2022-07-25T22:08:59.368Z,21.50
2022-07-25T22:11:47.589Z,21.50
2022-07-25T22:14:38.085Z,21.40
2022-07-25T22:17:26.334Z,21.50
2022-07-25T22:20:14.685Z,21.40
2022-07-25T22:23:03.003Z,21.40
2022-07-25T22:25:51.207Z,21.40
2022-07-25T22:28:39.457Z,21.50
2022-07-25T22:31:29.092Z,21.50
2022-07-25T22:34:17.347Z,21.40
2022-07-25T22:37:05.591Z,21.40
2022-07-25T22:39:57.732Z,21.50
2022-07-25T22:42:48.837Z,21.40
2022-07-25T22:45:42.583Z,21.50
2022-07-25T22:48:32.484Z,21.40
2022-07-25T22:51:20.721Z,21.40
2022-07-25T22:54:08.916Z,21.50
2022-07-25T22:56:57.727Z,21.50
2022-07-25T22:59:49.179Z,21.50
2022-07-25T23:02:37.514Z,21.40
2022-07-25T23:05:27.174Z,21.40
2022-07-25T23:08:15.329Z,21.40
2022-07-25T23:11:06.183Z,21.40
2022-07-25T23:13:54.528Z,21.40
2022-07-25T23:16:43.872Z,21.30
2022-07-25T23:19:32.080Z,21.30
2022-07-25T23:22:23.069Z,21.30
2022-07-25T23:25:11.736Z,21.20
2022-07-25T23:27:59.904Z,21.20
2022-07-25T23:30:48.500Z,21.20
2022-07-25T23:33:36.754Z,21.20
2022-07-25T23:36:24.927Z,21.20
2022-07-25T23:39:14.858Z,21.20
2022-07-25T23:42:03.400Z,21.10
2022-07-25T23:44:51.622Z,21.20
2022-07-25T23:47:40.717Z,21.10
2022-07-25T23:50:30.116Z,21.10
2022-07-25T23:53:18.369Z,21.10
2022-07-25T23:56:08.085Z,21.10
2022-07-25T23:58:56.328Z,21.00
